createdAt,value
2018-12-11T00:00:08.560Z,2.04
2018-12-11T00:00:20.916Z,2.04
2018-12-11T00:00:33.260Z,2.04
2018-12-11T00:00:45.591Z,2.04
2018-12-11T00:00:57.926Z,2.04
2018-12-11T00:01:10.272Z,2.04
2018-12-11T00:01:22.615Z,2.04
2018-12-11T00:01:34.945Z,2.04
2018-12-11T00:01:47.295Z,2.04
2018-12-11T00:01:59.700Z,2.04
2018-12-11T00:02:12.027Z,2.04
2018-12-11T00:02:24.482Z,2.04
2018-12-11T00:02:36.821Z,2.04
2018-12-11T00:02:49.413Z,2.04
2018-12-11T00:03:01.750Z,2.04
2018-12-11T00:03:14.089Z,2.04
2018-12-11T00:03:26.428Z,2.04
2018-12-11T00:03:38.764Z,2.04
2018-12-11T00:03:51.082Z,2.04
2018-12-11T00:04:03.428Z,2.04
2018-12-11T00:04:15.769Z,2.04
2018-12-11T00:04:28.154Z,2.04
2018-12-11T00:04:40.505Z,2.04
2018-12-11T00:04:52.872Z,2.04
2018-12-11T00:05:05.256Z,2.04
2018-12-11T00:05:17.616Z,2.04
2018-12-11T00:05:29.963Z,2.04
2018-12-11T00:05:42.310Z,2.04
2018-12-11T00:05:54.629Z,2.04
2018-12-11T00:06:06.952Z,2.04
2018-12-11T00:06:19.296Z,2.04
2018-12-11T00:06:31.628Z,2.04
2018-12-11T00:06:43.964Z,2.04
2018-12-11T00:06:56.302Z,2.04
2018-12-11T00:07:08.619Z,2.04
2018-12-11T00:07:20.941Z,2.04
2018-12-11T00:07:33.298Z,2.04
2018-12-11T00:07:45.642Z,2.04
2018-12-11T00:07:57.971Z,2.04
2018-12-11T00:08:10.311Z,2.04
2018-12-11T00:08:22.640Z,2.04
2018-12-11T00:08:34.971Z,2.04
2018-12-11T00:08:47.315Z,2.04
2018-12-11T00:08:59.658Z,1.86
2018-12-11T00:09:13.549Z,1.86
2018-12-11T00:09:26.092Z,1.86
2018-12-11T00:09:38.547Z,1.86
2018-12-11T00:09:50.899Z,1.86
2018-12-11T00:10:03.234Z,1.86
2018-12-11T00:10:15.564Z,1.86
2018-12-11T00:10:27.914Z,1.86
2018-12-11T00:10:40.246Z,1.86
2018-12-11T00:10:52.574Z,1.86
2018-12-11T00:11:04.974Z,1.86
2018-12-11T00:11:17.308Z,1.86
2018-12-11T00:11:35.149Z,1.86
2018-12-11T00:11:47.491Z,1.86
2018-12-11T00:11:59.822Z,1.86
2018-12-11T00:12:12.188Z,1.86
2018-12-11T00:12:24.538Z,1.86
2018-12-11T00:12:37.000Z,1.86
2018-12-11T00:12:49.324Z,1.86
2018-12-11T00:13:01.664Z,1.86
2018-12-11T00:13:14.004Z,1.86
2018-12-11T00:13:26.345Z,1.86
2018-12-11T00:13:38.671Z,1.86
2018-12-11T00:13:51.005Z,1.86
2018-12-11T00:14:03.343Z,1.86
2018-12-11T00:14:15.676Z,1.86
2018-12-11T00:14:28.020Z,1.86
2018-12-11T00:14:41.637Z,1.86
2018-12-11T00:14:53.982Z,1.86
2018-12-11T00:15:06.555Z,1.86
2018-12-11T00:15:18.895Z,1.86
2018-12-11T00:15:31.251Z,1.86
2018-12-11T00:15:43.612Z,1.86
2018-12-11T00:15:55.936Z,1.86
2018-12-11T00:16:08.284Z,1.86
2018-12-11T00:16:20.623Z,1.86
2018-12-11T00:16:32.956Z,1.86
2018-12-11T00:16:45.325Z,1.86
2018-12-11T00:16:57.653Z,1.86
2018-12-11T00:17:09.988Z,1.86
2018-12-11T00:17:22.336Z,1.86
2018-12-11T00:17:34.717Z,1.86
2018-12-11T00:17:47.096Z,1.86
2018-12-11T00:17:59.427Z,1.86
2018-12-11T00:18:11.846Z,1.86
2018-12-11T00:18:24.248Z,1.86
2018-12-11T00:18:36.598Z,1.86
2018-12-11T00:18:48.942Z,1.86
2018-12-11T00:19:01.289Z,2.26
2018-12-11T00:19:13.705Z,2.26
2018-12-11T00:19:26.057Z,2.26
2018-12-11T00:19:38.388Z,2.26
2018-12-11T00:19:50.723Z,2.26
2018-12-11T00:20:03.108Z,2.26
2018-12-11T00:20:15.446Z,2.26
2018-12-11T00:20:28.726Z,2.26
2018-12-11T00:20:41.088Z,2.26
2018-12-11T00:20:53.449Z,2.26
2018-12-11T00:21:05.821Z,2.26
2018-12-11T00:21:18.253Z,2.26
2018-12-11T00:21:30.619Z,2.26
2018-12-11T00:21:43.443Z,2.26
2018-12-11T00:21:55.842Z,2.26
2018-12-11T00:22:08.181Z,2.26
2018-12-11T00:22:20.540Z,2.26
2018-12-11T00:22:32.896Z,2.26
2018-12-11T00:22:46.298Z,2.26
2018-12-11T00:22:58.654Z,2.26
2018-12-11T00:23:11.001Z,2.26
2018-12-11T00:23:23.384Z,2.26
2018-12-11T00:23:35.731Z,2.26
2018-12-11T00:23:48.074Z,2.26
2018-12-11T00:24:00.407Z,2.26
2018-12-11T00:24:12.739Z,2.26
2018-12-11T00:24:25.097Z,2.26
2018-12-11T00:24:37.421Z,2.26
2018-12-11T00:24:49.756Z,2.26
2018-12-11T00:25:02.081Z,2.26
2018-12-11T00:25:14.421Z,2.26
2018-12-11T00:25:26.751Z,2.26
2018-12-11T00:25:39.246Z,2.26
2018-12-11T00:25:51.580Z,2.26
2018-12-11T00:26:03.907Z,2.26
2018-12-11T00:26:16.248Z,2.26
2018-12-11T00:26:28.734Z,2.26
2018-12-11T00:26:41.060Z,2.26
2018-12-11T00:26:53.429Z,2.26
2018-12-11T00:27:05.784Z,2.26
2018-12-11T00:27:18.134Z,2.26
2018-12-11T00:27:30.505Z,2.26
2018-12-11T00:27:42.826Z,2.26
2018-12-11T00:27:55.181Z,2.26
2018-12-11T00:28:07.521Z,2.26
2018-12-11T00:28:19.862Z,2.26
2018-12-11T00:28:32.205Z,2.26
2018-12-11T00:28:44.532Z,2.26
2018-12-11T00:28:56.863Z,2.02
2018-12-11T00:29:09.217Z,2.02
2018-12-11T00:29:21.543Z,2.02
2018-12-11T00:29:33.872Z,2.02
2018-12-11T00:29:46.194Z,2.02
2018-12-11T00:29:58.680Z,2.02
2018-12-11T00:30:11.024Z,2.02
2018-12-11T00:30:23.346Z,2.02
2018-12-11T00:30:35.848Z,2.02
2018-12-11T00:30:48.591Z,2.02
2018-12-11T00:31:01.082Z,2.02
2018-12-11T00:31:13.426Z,2.02
2018-12-11T00:31:25.778Z,2.02
2018-12-11T00:31:38.120Z,2.02
2018-12-11T00:31:50.450Z,2.02
2018-12-11T00:32:02.831Z,2.02
2018-12-11T00:32:15.162Z,2.02
2018-12-11T00:32:27.513Z,2.02
2018-12-11T00:32:39.842Z,2.02
2018-12-11T00:32:52.181Z,2.02
2018-12-11T00:33:04.513Z,2.02
2018-12-11T00:33:16.971Z,2.02
2018-12-11T00:33:29.313Z,2.02
2018-12-11T00:33:41.637Z,2.02
2018-12-11T00:33:53.970Z,2.02
2018-12-11T00:34:06.306Z,2.02
2018-12-11T00:34:18.639Z,2.02
2018-12-11T00:34:31.104Z,2.02
2018-12-11T00:34:43.434Z,2.02
2018-12-11T00:34:55.751Z,2.02
2018-12-11T00:35:08.129Z,2.02
2018-12-11T00:35:20.453Z,2.02
2018-12-11T00:35:32.780Z,2.02
2018-12-11T00:35:45.118Z,2.02
2018-12-11T00:35:57.444Z,2.02
2018-12-11T00:36:09.761Z,2.02
2018-12-11T00:36:22.084Z,2.02
2018-12-11T00:36:34.433Z,2.02
2018-12-11T00:36:46.760Z,2.02
2018-12-11T00:36:59.099Z,2.02
2018-12-11T00:37:11.445Z,2.02
2018-12-11T00:37:23.789Z,2.02
2018-12-11T00:37:36.111Z,2.02
2018-12-11T00:37:48.444Z,2.02
2018-12-11T00:38:00.770Z,2.02
2018-12-11T00:38:13.118Z,2.02
2018-12-11T00:38:25.478Z,2.02
2018-12-11T00:38:37.795Z,2.02
2018-12-11T00:38:50.153Z,2.02
2018-12-11T00:39:02.490Z,1.88
2018-12-11T00:39:14.823Z,1.88
2018-12-11T00:39:27.206Z,1.88
2018-12-11T00:39:39.540Z,1.88
2018-12-11T00:39:52.003Z,1.88
2018-12-11T00:40:04.343Z,1.88
2018-12-11T00:40:16.695Z,1.88
2018-12-11T00:40:29.030Z,1.88
2018-12-11T00:40:41.375Z,1.88
2018-12-11T00:40:53.710Z,1.88
2018-12-11T00:41:06.167Z,1.88
2018-12-11T00:41:19.082Z,1.88
2018-12-11T00:41:31.462Z,1.88
2018-12-11T00:41:43.797Z,1.88
2018-12-11T00:41:56.151Z,1.88
2018-12-11T00:42:08.474Z,1.88
2018-12-11T00:42:20.798Z,1.88
2018-12-11T00:42:33.122Z,1.88
2018-12-11T00:42:45.455Z,1.88
2018-12-11T00:42:57.782Z,1.88
2018-12-11T00:43:10.136Z,1.88
2018-12-11T00:43:22.476Z,1.88
2018-12-11T00:43:34.812Z,1.88
2018-12-11T00:43:47.139Z,1.88
2018-12-11T00:43:59.484Z,1.88
2018-12-11T00:44:11.890Z,1.88
2018-12-11T00:44:24.294Z,1.88
2018-12-11T00:44:36.631Z,1.88
2018-12-11T00:44:49.026Z,1.88
2018-12-11T00:45:01.369Z,1.88
2018-12-11T00:45:13.701Z,1.88
2018-12-11T00:45:26.041Z,1.88
2018-12-11T00:45:38.387Z,1.88
2018-12-11T00:45:50.719Z,1.88
2018-12-11T00:46:03.055Z,1.88
2018-12-11T00:46:15.395Z,1.88
2018-12-11T00:46:27.779Z,1.88
2018-12-11T00:46:40.109Z,1.88
2018-12-11T00:46:52.456Z,1.88
2018-12-11T00:47:04.800Z,1.88
2018-12-11T00:47:17.134Z,1.88
2018-12-11T00:47:29.961Z,1.88
2018-12-11T00:47:42.317Z,1.88
2018-12-11T00:47:54.860Z,1.88
2018-12-11T00:48:07.188Z,1.88
2018-12-11T00:48:19.537Z,1.88
2018-12-11T00:48:31.876Z,1.88
2018-12-11T00:48:44.223Z,1.88
2018-12-11T00:48:56.554Z,1.89
2018-12-11T00:49:08.887Z,1.89
2018-12-11T00:49:21.219Z,1.89
2018-12-11T00:49:33.547Z,1.89
2018-12-11T00:49:45.907Z,1.89
2018-12-11T00:49:58.250Z,1.89
2018-12-11T00:50:10.727Z,1.89
2018-12-11T00:50:23.058Z,1.89
2018-12-11T00:50:35.385Z,1.89
2018-12-11T00:50:47.723Z,1.89
2018-12-11T00:51:00.069Z,1.89
2018-12-11T00:51:12.549Z,1.89
2018-12-11T00:51:24.915Z,1.89
2018-12-11T00:51:37.250Z,1.89
2018-12-11T00:51:49.630Z,1.89
2018-12-11T00:52:01.977Z,1.89
2018-12-11T00:52:14.304Z,1.89
2018-12-11T00:52:26.635Z,1.89
2018-12-11T00:52:38.955Z,1.89
2018-12-11T00:52:51.348Z,1.89
2018-12-11T00:53:03.690Z,1.89
2018-12-11T00:53:16.084Z,1.89
2018-12-11T00:53:28.426Z,1.89
2018-12-11T00:53:40.802Z,1.89
2018-12-11T00:53:53.140Z,1.89
2018-12-11T00:54:05.536Z,1.89
2018-12-11T00:54:17.862Z,1.89
2018-12-11T00:54:30.222Z,1.89
2018-12-11T00:54:42.559Z,1.89
2018-12-11T00:54:55.290Z,1.89
2018-12-11T00:55:07.642Z,1.89
2018-12-11T00:55:19.983Z,1.89
2018-12-11T00:55:32.313Z,1.89
2018-12-11T00:55:44.645Z,1.89
2018-12-11T00:55:56.968Z,1.89
2018-12-11T00:56:09.310Z,1.89
2018-12-11T00:56:21.658Z,1.89
2018-12-11T00:56:34.132Z,1.89
2018-12-11T00:56:46.467Z,1.89
2018-12-11T00:56:58.836Z,1.89
2018-12-11T00:57:11.155Z,1.89
2018-12-11T00:57:23.480Z,1.89
2018-12-11T00:57:35.970Z,1.89
2018-12-11T00:57:48.297Z,1.89
2018-12-11T00:58:00.687Z,1.89
2018-12-11T00:58:13.090Z,1.89
2018-12-11T00:58:25.628Z,1.89
2018-12-11T00:58:37.972Z,1.89
2018-12-11T00:58:50.314Z,1.89
2018-12-11T00:59:02.689Z,1.69
2018-12-11T00:59:15.044Z,1.69
2018-12-11T00:59:27.396Z,1.69
2018-12-11T00:59:39.799Z,1.69
2018-12-11T00:59:52.169Z,1.69
2018-12-11T01:00:04.504Z,1.69
2018-12-11T01:00:16.837Z,1.69
2018-12-11T01:00:29.188Z,1.69
2018-12-11T01:00:41.520Z,1.69
2018-12-11T01:00:53.939Z,1.69
2018-12-11T01:01:06.275Z,1.69
2018-12-11T01:01:18.625Z,1.69
2018-12-11T01:01:30.970Z,1.69
2018-12-11T01:01:43.384Z,1.69
2018-12-11T01:01:55.728Z,1.69
2018-12-11T01:02:08.068Z,1.69
2018-12-11T01:02:20.399Z,1.69
2018-12-11T01:02:33.050Z,1.69
2018-12-11T01:02:45.385Z,1.69
2018-12-11T01:02:58.295Z,1.69
2018-12-11T01:03:10.644Z,1.69
2018-12-11T01:03:22.992Z,1.69
2018-12-11T01:03:35.843Z,1.69
2018-12-11T01:03:48.200Z,1.69
2018-12-11T01:04:00.608Z,1.69
2018-12-11T01:04:12.943Z,1.69
2018-12-11T01:04:25.287Z,1.69
2018-12-11T01:04:37.782Z,1.69
2018-12-11T01:04:50.132Z,1.69
2018-12-11T01:05:02.470Z,1.69
2018-12-11T01:05:14.803Z,1.69
2018-12-11T01:05:27.159Z,1.69
2018-12-11T01:05:39.495Z,1.69
2018-12-11T01:05:51.816Z,1.69
2018-12-11T01:06:04.142Z,1.69
2018-12-11T01:06:16.520Z,1.69
2018-12-11T01:06:28.868Z,1.69
2018-12-11T01:06:41.218Z,1.69
2018-12-11T01:06:53.556Z,1.69
2018-12-11T01:07:05.918Z,1.69
2018-12-11T01:07:18.248Z,1.69
2018-12-11T01:07:30.594Z,1.69
2018-12-11T01:07:42.947Z,1.69
2018-12-11T01:07:55.289Z,1.69
2018-12-11T01:08:07.694Z,1.69
2018-12-11T01:08:20.041Z,1.69
2018-12-11T01:08:32.379Z,1.69
2018-12-11T01:08:44.714Z,1.69
2018-12-11T01:08:57.109Z,1.85
2018-12-11T01:09:09.452Z,1.85
2018-12-11T01:09:21.918Z,1.85
2018-12-11T01:09:34.411Z,1.85
2018-12-11T01:09:46.751Z,1.85
2018-12-11T01:09:59.110Z,1.85
2018-12-11T01:10:11.436Z,1.85
2018-12-11T01:10:23.778Z,1.85
2018-12-11T01:10:36.120Z,1.85
2018-12-11T01:10:48.518Z,1.85
2018-12-11T01:11:00.867Z,1.85
2018-12-11T01:11:13.221Z,1.85
2018-12-11T01:11:25.558Z,1.85
2018-12-11T01:11:37.976Z,1.85
2018-12-11T01:11:50.309Z,1.85
2018-12-11T01:12:02.644Z,1.85
2018-12-11T01:12:14.974Z,1.85
2018-12-11T01:12:27.316Z,1.85
2018-12-11T01:12:39.818Z,1.85
2018-12-11T01:12:52.175Z,1.85
2018-12-11T01:13:04.562Z,1.85
2018-12-11T01:13:16.893Z,1.85
2018-12-11T01:13:29.225Z,1.85
2018-12-11T01:13:41.553Z,1.85
2018-12-11T01:13:53.907Z,1.85
2018-12-11T01:14:06.252Z,1.85
2018-12-11T01:14:18.569Z,1.85
2018-12-11T01:14:30.974Z,1.85
2018-12-11T01:14:43.324Z,1.85
2018-12-11T01:14:55.678Z,1.85
2018-12-11T01:15:08.184Z,1.85
2018-12-11T01:15:20.512Z,1.85
2018-12-11T01:15:32.894Z,1.85
2018-12-11T01:15:45.225Z,1.85
2018-12-11T01:15:57.645Z,1.85
2018-12-11T01:16:09.997Z,1.85
2018-12-11T01:16:22.327Z,1.85
2018-12-11T01:16:34.668Z,1.85
2018-12-11T01:16:46.995Z,1.85
2018-12-11T01:16:59.341Z,1.85
2018-12-11T01:17:11.720Z,1.85
2018-12-11T01:17:24.063Z,1.85
2018-12-11T01:17:36.405Z,1.85
2018-12-11T01:17:48.741Z,1.85
2018-12-11T01:18:01.118Z,1.85
2018-12-11T01:18:13.653Z,1.85
2018-12-11T01:18:26.034Z,1.85
2018-12-11T01:18:38.382Z,1.85
2018-12-11T01:18:50.742Z,1.85
2018-12-11T01:19:03.101Z,2.04
2018-12-11T01:19:15.691Z,2.04
2018-12-11T01:19:28.036Z,2.04
2018-12-11T01:19:40.381Z,2.04
2018-12-11T01:19:52.782Z,2.04
2018-12-11T01:20:05.122Z,2.04
2018-12-11T01:20:17.459Z,2.04
2018-12-11T01:20:29.805Z,2.04
2018-12-11T01:20:43.165Z,2.04
2018-12-11T01:20:55.575Z,2.04
2018-12-11T01:21:07.903Z,2.04
2018-12-11T01:21:20.241Z,2.04
2018-12-11T01:21:32.604Z,2.04
2018-12-11T01:21:45.105Z,2.04
2018-12-11T01:21:57.508Z,2.04
2018-12-11T01:22:09.849Z,2.04
2018-12-11T01:22:22.243Z,2.04
2018-12-11T01:22:34.598Z,2.04
2018-12-11T01:22:46.917Z,2.04
2018-12-11T01:22:59.267Z,2.04
2018-12-11T01:23:11.612Z,2.04
2018-12-11T01:23:23.945Z,2.04
2018-12-11T01:23:36.285Z,2.04
2018-12-11T01:23:48.625Z,2.04
2018-12-11T01:24:00.960Z,2.04
2018-12-11T01:24:13.326Z,2.04
2018-12-11T01:24:25.654Z,2.04
2018-12-11T01:24:38.010Z,2.04
2018-12-11T01:24:50.345Z,2.04
2018-12-11T01:25:02.675Z,2.04
2018-12-11T01:25:15.008Z,2.04
2018-12-11T01:25:27.396Z,2.04
2018-12-11T01:25:39.751Z,2.04
2018-12-11T01:25:52.097Z,2.04
2018-12-11T01:26:04.493Z,2.04
2018-12-11T01:26:16.985Z,2.04
2018-12-11T01:26:29.477Z,2.04
2018-12-11T01:26:41.807Z,2.04
2018-12-11T01:26:54.185Z,2.04
2018-12-11T01:27:06.553Z,2.04
2018-12-11T01:27:18.908Z,2.04
2018-12-11T01:27:31.265Z,2.04
2018-12-11T01:27:43.685Z,2.04
2018-12-11T01:27:56.033Z,2.04
2018-12-11T01:28:08.362Z,2.04
2018-12-11T01:28:20.737Z,2.04
2018-12-11T01:28:33.067Z,2.04
2018-12-11T01:28:45.410Z,2.04
2018-12-11T01:28:57.783Z,1.8
2018-12-11T01:29:10.208Z,1.8
2018-12-11T01:29:22.543Z,1.8
2018-12-11T01:29:34.881Z,1.8
2018-12-11T01:29:47.226Z,1.8
2018-12-11T01:29:59.870Z,1.8
2018-12-11T01:30:12.245Z,1.8
2018-12-11T01:30:24.579Z,1.8
2018-12-11T01:30:37.007Z,1.8
2018-12-11T01:30:49.596Z,1.8
2018-12-11T01:31:02.058Z,1.8
2018-12-11T01:31:14.404Z,1.8
2018-12-11T01:31:26.762Z,1.8
2018-12-11T01:31:39.090Z,1.8
2018-12-11T01:31:51.593Z,1.8
2018-12-11T01:32:04.004Z,1.8
2018-12-11T01:32:16.337Z,1.8
2018-12-11T01:32:28.675Z,1.8
2018-12-11T01:32:41.059Z,1.8
2018-12-11T01:32:53.415Z,1.8
2018-12-11T01:33:05.748Z,1.8
2018-12-11T01:33:18.209Z,1.8
2018-12-11T01:33:30.548Z,1.8
2018-12-11T01:33:42.884Z,1.8
2018-12-11T01:33:55.240Z,1.8
2018-12-11T01:34:07.587Z,1.8
2018-12-11T01:34:20.004Z,1.8
2018-12-11T01:34:32.364Z,1.8
2018-12-11T01:34:44.695Z,1.8
2018-12-11T01:34:57.036Z,1.8
2018-12-11T01:35:09.398Z,1.8
2018-12-11T01:35:21.752Z,1.8
2018-12-11T01:35:34.083Z,1.8
2018-12-11T01:35:46.404Z,1.8
2018-12-11T01:35:58.762Z,1.8
2018-12-11T01:36:11.091Z,1.8
2018-12-11T01:36:23.430Z,1.8
2018-12-11T01:36:35.754Z,1.8
2018-12-11T01:36:48.143Z,1.8
2018-12-11T01:37:00.488Z,1.8
2018-12-11T01:37:12.808Z,1.8
2018-12-11T01:37:25.206Z,1.8
2018-12-11T01:37:37.541Z,1.8
2018-12-11T01:37:49.877Z,1.8
2018-12-11T01:38:02.229Z,1.8
2018-12-11T01:38:14.626Z,1.8
2018-12-11T01:38:26.973Z,1.8
2018-12-11T01:38:39.406Z,1.8
2018-12-11T01:38:51.735Z,1.8
2018-12-11T01:39:04.067Z,1.92
2018-12-11T01:39:16.413Z,1.92
2018-12-11T01:39:28.757Z,1.92
2018-12-11T01:39:41.087Z,1.92
2018-12-11T01:39:53.496Z,1.92
2018-12-11T01:40:05.826Z,1.92
2018-12-11T01:40:18.160Z,1.92
2018-12-11T01:40:30.521Z,1.92
2018-12-11T01:40:42.858Z,1.92
2018-12-11T01:40:55.214Z,1.92
2018-12-11T01:41:07.911Z,1.92
2018-12-11T01:41:20.250Z,1.92
2018-12-11T01:41:32.605Z,1.92
2018-12-11T01:41:44.933Z,1.92
2018-12-11T01:41:57.268Z,1.92
2018-12-11T01:42:09.612Z,1.92
2018-12-11T01:42:21.942Z,1.92
2018-12-11T01:42:34.293Z,1.92
2018-12-11T01:42:46.634Z,1.92
2018-12-11T01:42:58.977Z,1.92
2018-12-11T01:43:11.317Z,1.92
2018-12-11T01:43:23.668Z,1.92
2018-12-11T01:43:36.023Z,1.92
2018-12-11T01:43:48.358Z,1.92
2018-12-11T01:44:00.708Z,1.92
2018-12-11T01:44:13.026Z,1.92
2018-12-11T01:44:25.355Z,1.92
2018-12-11T01:44:37.688Z,1.92
2018-12-11T01:44:50.104Z,1.92
2018-12-11T01:45:02.496Z,1.92
2018-12-11T01:45:14.829Z,1.92
2018-12-11T01:45:27.192Z,1.92
2018-12-11T01:45:39.535Z,1.92
2018-12-11T01:45:51.912Z,1.92
2018-12-11T01:46:04.315Z,1.92
2018-12-11T01:46:16.654Z,1.92
2018-12-11T01:46:28.990Z,1.92
2018-12-11T01:46:41.879Z,1.92
2018-12-11T01:46:54.289Z,1.92
2018-12-11T01:47:06.625Z,1.92
2018-12-11T01:47:19.002Z,1.92
2018-12-11T01:47:31.334Z,1.92
2018-12-11T01:47:43.664Z,1.92
2018-12-11T01:47:56.112Z,1.92
2018-12-11T01:48:08.506Z,1.92
2018-12-11T01:48:20.911Z,1.92
2018-12-11T01:48:33.278Z,1.92
2018-12-11T01:48:45.605Z,1.92
2018-12-11T01:48:57.979Z,1.92
2018-12-11T01:49:10.378Z,2.37
2018-12-11T01:49:22.722Z,2.37
2018-12-11T01:49:35.061Z,2.37
2018-12-11T01:49:47.400Z,2.37
2018-12-11T01:49:59.897Z,2.37
2018-12-11T01:50:12.256Z,2.37
2018-12-11T01:50:24.587Z,2.37
2018-12-11T01:50:36.966Z,2.37
2018-12-11T01:50:49.322Z,2.37
2018-12-11T01:51:01.700Z,2.37
2018-12-11T01:51:14.041Z,2.37
2018-12-11T01:51:26.388Z,2.37
2018-12-11T01:51:38.732Z,2.37
2018-12-11T01:51:51.059Z,2.37
2018-12-11T01:52:03.400Z,2.37
2018-12-11T01:52:15.740Z,2.37
2018-12-11T01:52:28.117Z,2.37
2018-12-11T01:52:40.527Z,2.37
2018-12-11T01:52:52.881Z,2.37
2018-12-11T01:53:05.247Z,2.37
2018-12-11T01:53:17.589Z,2.37
2018-12-11T01:53:29.931Z,2.37
2018-12-11T01:53:42.276Z,2.37
2018-12-11T01:53:54.661Z,2.37
2018-12-11T01:54:06.998Z,2.37
2018-12-11T01:54:19.322Z,2.37
2018-12-11T01:54:33.009Z,2.37
2018-12-11T01:54:45.348Z,2.37
2018-12-11T01:54:58.258Z,2.37
2018-12-11T01:55:10.603Z,2.37
2018-12-11T01:55:23.079Z,2.37
2018-12-11T01:55:35.423Z,2.37
2018-12-11T01:55:47.767Z,2.37
2018-12-11T01:56:00.107Z,2.37
2018-12-11T01:56:12.442Z,2.37
2018-12-11T01:56:24.786Z,2.37
2018-12-11T01:56:37.328Z,2.37
2018-12-11T01:56:49.672Z,2.37
2018-12-11T01:57:02.046Z,2.37
2018-12-11T01:57:14.391Z,2.37
2018-12-11T01:57:26.737Z,2.37
2018-12-11T01:57:39.145Z,2.37
2018-12-11T01:57:51.484Z,2.37
2018-12-11T01:58:03.825Z,2.37
2018-12-11T01:58:16.171Z,2.37
2018-12-11T01:58:28.638Z,2.37
2018-12-11T01:58:40.974Z,2.37
2018-12-11T01:58:53.364Z,2.37
2018-12-11T01:59:05.701Z,2.21
2018-12-11T01:59:18.067Z,2.21
2018-12-11T01:59:30.461Z,2.21
2018-12-11T01:59:42.796Z,2.21
2018-12-11T01:59:55.151Z,2.21
2018-12-11T02:00:07.499Z,2.21
2018-12-11T02:00:19.844Z,2.21
2018-12-11T02:00:32.193Z,2.21
2018-12-11T02:00:44.534Z,2.21
2018-12-11T02:00:56.882Z,2.21
2018-12-11T02:01:09.216Z,2.21
2018-12-11T02:01:21.618Z,2.21
2018-12-11T02:01:33.968Z,2.21
2018-12-11T02:01:46.302Z,2.21
2018-12-11T02:01:58.623Z,2.21
2018-12-11T02:02:10.997Z,2.21
2018-12-11T02:02:23.358Z,2.21
2018-12-11T02:02:35.799Z,2.21
2018-12-11T02:02:48.273Z,2.21
2018-12-11T02:03:00.609Z,2.21
2018-12-11T02:03:12.933Z,2.21
2018-12-11T02:03:25.315Z,2.21
2018-12-11T02:03:38.831Z,2.21
2018-12-11T02:03:51.209Z,2.21
2018-12-11T02:04:03.552Z,2.21
2018-12-11T02:04:15.905Z,2.21
2018-12-11T02:04:28.276Z,2.21
2018-12-11T02:04:40.622Z,2.21
2018-12-11T02:04:52.976Z,2.21
2018-12-11T02:05:05.318Z,2.21
2018-12-11T02:05:17.675Z,2.21
2018-12-11T02:05:30.030Z,2.21
2018-12-11T02:05:42.361Z,2.21
2018-12-11T02:05:54.702Z,2.21
2018-12-11T02:06:07.062Z,2.21
2018-12-11T02:06:19.403Z,2.21
2018-12-11T02:06:31.899Z,2.21
2018-12-11T02:06:44.231Z,2.21
2018-12-11T02:06:56.788Z,2.21
2018-12-11T02:07:09.149Z,2.21
2018-12-11T02:07:21.487Z,2.21
2018-12-11T02:07:33.826Z,2.21
2018-12-11T02:07:46.205Z,2.21
2018-12-11T02:07:58.560Z,2.21
2018-12-11T02:08:10.898Z,2.21
2018-12-11T02:08:23.287Z,2.21
2018-12-11T02:08:35.634Z,2.21
2018-12-11T02:08:47.997Z,2.21
2018-12-11T02:09:01.166Z,2.29
2018-12-11T02:09:13.669Z,2.29
2018-12-11T02:09:26.015Z,2.29
2018-12-11T02:09:38.531Z,2.29
2018-12-11T02:09:50.887Z,2.29
2018-12-11T02:10:03.229Z,2.29
2018-12-11T02:10:15.619Z,2.29
2018-12-11T02:10:27.969Z,2.29
2018-12-11T02:10:40.313Z,2.29
2018-12-11T02:10:52.664Z,2.29
2018-12-11T02:11:04.999Z,2.29
2018-12-11T02:11:17.336Z,2.29
2018-12-11T02:11:29.657Z,2.29
2018-12-11T02:11:41.989Z,2.29
2018-12-11T02:11:54.328Z,2.29
2018-12-11T02:12:06.686Z,2.29
2018-12-11T02:12:19.010Z,2.29
2018-12-11T02:12:31.374Z,2.29
2018-12-11T02:12:43.853Z,2.29
2018-12-11T02:12:56.191Z,2.29
2018-12-11T02:13:08.529Z,2.29
2018-12-11T02:13:20.876Z,2.29
2018-12-11T02:13:33.213Z,2.29
2018-12-11T02:13:45.591Z,2.29
2018-12-11T02:13:57.939Z,2.29
2018-12-11T02:14:10.271Z,2.29
2018-12-11T02:14:22.612Z,2.29
2018-12-11T02:14:34.961Z,2.29
2018-12-11T02:14:47.312Z,2.29
2018-12-11T02:14:59.645Z,2.29
2018-12-11T02:15:13.095Z,2.29
2018-12-11T02:15:25.495Z,2.29
2018-12-11T02:15:37.855Z,2.29
2018-12-11T02:15:50.205Z,2.29
2018-12-11T02:16:02.550Z,2.29
2018-12-11T02:16:14.899Z,2.29
2018-12-11T02:16:27.251Z,2.29
2018-12-11T02:16:39.585Z,2.29
2018-12-11T02:16:51.948Z,2.29
2018-12-11T02:17:04.289Z,2.29
2018-12-11T02:17:16.655Z,2.29
2018-12-11T02:17:29.025Z,2.29
2018-12-11T02:17:41.383Z,2.29
2018-12-11T02:17:53.732Z,2.29
2018-12-11T02:18:06.218Z,2.29
2018-12-11T02:18:18.546Z,2.29
2018-12-11T02:18:30.884Z,2.29
2018-12-11T02:18:43.259Z,2.29
2018-12-11T02:18:55.604Z,2.29
2018-12-11T02:19:07.953Z,2.63
2018-12-11T02:19:20.526Z,2.63
2018-12-11T02:19:32.867Z,2.63
2018-12-11T02:19:45.264Z,2.63
2018-12-11T02:19:57.643Z,2.63
2018-12-11T02:20:09.971Z,2.63
2018-12-11T02:20:22.315Z,2.63
2018-12-11T02:20:34.652Z,2.63
2018-12-11T02:20:47.007Z,2.63
2018-12-11T02:20:59.355Z,2.63
2018-12-11T02:21:12.316Z,2.63
2018-12-11T02:21:24.749Z,2.63
2018-12-11T02:21:43.237Z,2.63
2018-12-11T02:21:56.381Z,2.63
2018-12-11T02:22:08.754Z,2.63
2018-12-11T02:22:21.108Z,2.63
2018-12-11T02:22:33.457Z,2.63
2018-12-11T02:22:45.794Z,2.63
2018-12-11T02:22:58.152Z,2.63
2018-12-11T02:23:10.493Z,2.63
2018-12-11T02:23:22.843Z,2.63
2018-12-11T02:23:35.217Z,2.63
2018-12-11T02:23:47.606Z,2.63
2018-12-11T02:23:59.957Z,2.63
2018-12-11T02:24:12.294Z,2.63
2018-12-11T02:24:24.666Z,2.63
2018-12-11T02:24:37.016Z,2.63
2018-12-11T02:24:49.363Z,2.63
2018-12-11T02:25:01.729Z,2.63
2018-12-11T02:25:14.119Z,2.63
2018-12-11T02:25:26.473Z,2.63
2018-12-11T02:25:38.841Z,2.63
2018-12-11T02:25:51.181Z,2.63
2018-12-11T02:26:03.547Z,2.63
2018-12-11T02:26:15.887Z,2.63
2018-12-11T02:26:28.409Z,2.63
2018-12-11T02:26:40.753Z,2.63
2018-12-11T02:26:53.099Z,2.63
2018-12-11T02:27:05.434Z,2.63
2018-12-11T02:27:17.782Z,2.63
2018-12-11T02:27:30.114Z,2.63
2018-12-11T02:27:42.474Z,2.63
2018-12-11T02:27:54.809Z,2.63
2018-12-11T02:28:07.155Z,2.63
2018-12-11T02:28:19.501Z,2.63
2018-12-11T02:28:31.838Z,2.63
2018-12-11T02:28:44.276Z,2.63
2018-12-11T02:28:56.639Z,2.63
2018-12-11T02:29:09.087Z,1.95
2018-12-11T02:29:21.428Z,1.95
2018-12-11T02:29:33.774Z,1.95
2018-12-11T02:29:46.259Z,1.95
2018-12-11T02:29:59.198Z,1.95
2018-12-11T02:30:11.598Z,1.95
2018-12-11T02:30:24.091Z,1.95
2018-12-11T02:30:36.685Z,1.95
2018-12-11T02:30:49.589Z,1.95
2018-12-11T02:31:02.162Z,1.95
2018-12-11T02:31:14.539Z,1.95
2018-12-11T02:31:26.911Z,1.95
2018-12-11T02:31:39.379Z,1.95
2018-12-11T02:31:51.890Z,1.95
2018-12-11T02:32:04.303Z,1.95
2018-12-11T02:32:16.709Z,1.95
2018-12-11T02:32:29.079Z,1.95
2018-12-11T02:32:41.448Z,1.95
2018-12-11T02:32:53.843Z,1.95
2018-12-11T02:33:06.212Z,1.95
2018-12-11T02:33:18.697Z,1.95
2018-12-11T02:33:31.091Z,1.95
2018-12-11T02:33:43.452Z,1.95
2018-12-11T02:33:55.848Z,1.95
2018-12-11T02:34:08.213Z,1.95
2018-12-11T02:34:20.590Z,1.95
2018-12-11T02:34:33.034Z,1.95
2018-12-11T02:34:45.413Z,1.95
2018-12-11T02:34:57.833Z,1.95
2018-12-11T02:35:10.202Z,1.95
2018-12-11T02:35:22.604Z,1.95
2018-12-11T02:35:35.031Z,1.95
2018-12-11T02:35:47.433Z,1.95
2018-12-11T02:35:59.838Z,1.95
2018-12-11T02:36:12.232Z,1.95
2018-12-11T02:36:24.603Z,1.95
2018-12-11T02:36:36.986Z,1.95
2018-12-11T02:36:49.347Z,1.95
2018-12-11T02:37:01.742Z,1.95
2018-12-11T02:37:14.097Z,1.95
2018-12-11T02:37:26.465Z,1.95
2018-12-11T02:37:38.975Z,1.95
2018-12-11T02:37:51.330Z,1.95
2018-12-11T02:38:03.755Z,1.95
2018-12-11T02:38:16.129Z,1.95
2018-12-11T02:38:28.604Z,1.95
2018-12-11T02:38:41.026Z,1.95
2018-12-11T02:38:53.379Z,1.95
2018-12-11T02:39:05.753Z,2.2
2018-12-11T02:39:18.157Z,2.2
2018-12-11T02:39:30.526Z,2.2
2018-12-11T02:39:43.008Z,2.2
2018-12-11T02:39:55.556Z,2.2
2018-12-11T02:40:07.946Z,2.2
2018-12-11T02:40:20.315Z,2.2
2018-12-11T02:40:32.668Z,2.2
2018-12-11T02:40:45.046Z,2.2
2018-12-11T02:40:57.417Z,2.2
2018-12-11T02:41:10.184Z,2.2
2018-12-11T02:41:22.579Z,2.2
2018-12-11T02:41:34.943Z,2.2
2018-12-11T02:41:47.310Z,2.2
2018-12-11T02:41:59.668Z,2.2
2018-12-11T02:42:12.027Z,2.2
2018-12-11T02:42:24.413Z,2.2
2018-12-11T02:42:36.798Z,2.2
2018-12-11T02:42:49.187Z,2.2
2018-12-11T02:43:01.556Z,2.2
2018-12-11T02:43:13.960Z,2.2
2018-12-11T02:43:26.335Z,2.2
2018-12-11T02:43:38.718Z,2.2
2018-12-11T02:43:51.108Z,2.2
2018-12-11T02:44:03.501Z,2.2
2018-12-11T02:44:15.871Z,2.2
2018-12-11T02:44:28.272Z,2.2
2018-12-11T02:44:40.671Z,2.2
2018-12-11T02:44:53.058Z,2.2
2018-12-11T02:45:05.420Z,2.2
2018-12-11T02:45:17.804Z,2.2
2018-12-11T02:45:30.161Z,2.2
2018-12-11T02:45:42.545Z,2.2